Terminal Aerodrome Forecast
Issued by NWS Mt. Holly, NJ

Home | Current Version | Previous Version | Text Only | Print | Product List | Glossary On
Versions: 1 2 3 4 5 6 7 8 9 10 11 12 13 14 15 16 17 18 19 20 21 22 23 24
774
FTUS41 KPHI 240933 AAB
TAFTTN
TAF AMD
KTTN 240933Z 2410/2506 VRB03KT P6SM SCT040 BKN100
     FM241200 34005KT P6SM SCT040 BKN120
     FM241800 32007KT P6SM BKN050 OVC120
     FM242200 34004KT P6SM SCT120=

USA.gov is the U.S. government's official web portal to all federal, state and local government web resources and services.